sensor_id;sensor_type;location;lat;lon;timestamp;P1;durP1;ratioP1;P2;durP2;ratioP2
3924;SDS011;1977;52.274;10.518;2024-03-23T00:55:58;11.47;;;6.93;;
3924;SDS011;1977;52.274;10.518;2024-03-23T00:58:24;10.67;;;5.40;;
3924;SDS011;1977;52.274;10.518;2024-03-23T01:00:51;10.23;;;6.13;;
3924;SDS011;1977;52.274;10.518;2024-03-23T01:03:16;8.03;;;6.67;;
3924;SDS011;1977;52.274;10.518;2024-03-23T01:05:43;6.53;;;5.60;;
3924;SDS011;1977;52.274;10.518;2024-03-23T01:08:09;7.23;;;5.33;;
3924;SDS011;1977;52.274;10.518;2024-03-23T01:10:37;8.20;;;5.93;;
3924;SDS011;1977;52.274;10.518;2024-03-23T01:13:03;8.13;;;6.00;;
3924;SDS011;1977;52.274;10.518;2024-03-23T01:15:30;7.40;;;5.27;;
3924;SDS011;1977;52.274;10.518;2024-03-23T01:17:55;9.80;;;6.67;;
3924;SDS011;1977;52.274;10.518;2024-03-23T01:20:22;7.83;;;5.10;;
3924;SDS011;1977;52.274;10.518;2024-03-23T01:22:48;7.23;;;5.33;;
3924;SDS011;1977;52.274;10.518;2024-03-23T01:25:15;8.20;;;6.03;;
3924;SDS011;1977;52.274;10.518;2024-03-23T01:27:42;6.50;;;4.60;;
3924;SDS011;1977;52.274;10.518;2024-03-23T01:30:09;6.57;;;4.47;;
3924;SDS011;1977;52.274;10.518;2024-03-23T01:32:35;7.37;;;3.70;;
3924;SDS011;1977;52.274;10.518;2024-03-23T01:35:02;7.40;;;4.10;;
3924;SDS011;1977;52.274;10.518;2024-03-23T01:37:29;3.73;;;3.43;;
3924;SDS011;1977;52.274;10.518;2024-03-23T01:39:55;6.17;;;4.53;;
3924;SDS011;1977;52.274;10.518;2024-03-23T01:42:21;5.10;;;4.60;;
3924;SDS011;1977;52.274;10.518;2024-03-23T01:44:49;6.23;;;4.07;;
3924;SDS011;1977;52.274;10.518;2024-03-23T01:47:15;7.27;;;3.60;;
3924;SDS011;1977;52.274;10.518;2024-03-23T01:49:42;4.80;;;3.83;;
3924;SDS011;1977;52.274;10.518;2024-03-23T01:52:08;7.87;;;4.20;;
3924;SDS011;1977;52.274;10.518;2024-03-23T01:54:35;3.90;;;3.50;;
3924;SDS011;1977;52.274;10.518;2024-03-23T01:57:02;4.83;;;4.10;;
3924;SDS011;1977;52.274;10.518;2024-03-23T01:59:29;8.10;;;4.00;;
3924;SDS011;1977;52.274;10.518;2024-03-23T02:01:56;3.70;;;3.40;;
3924;SDS011;1977;52.274;10.518;2024-03-23T02:04:23;7.77;;;4.03;;
3924;SDS011;1977;52.274;10.518;2024-03-23T02:06:49;5.97;;;4.27;;
3924;SDS011;1977;52.274;10.518;2024-03-23T02:09:16;5.27;;;4.57;;
3924;SDS011;1977;52.274;10.518;2024-03-23T02:11:41;10.43;;;5.20;;
3924;SDS011;1977;52.274;10.518;2024-03-23T02:14:08;4.43;;;4.03;;
3924;SDS011;1977;52.274;10.518;2024-03-23T02:16:34;8.50;;;3.47;;
3924;SDS011;1977;52.274;10.518;2024-03-23T02:19:02;4.10;;;3.70;;
3924;SDS011;1977;52.274;10.518;2024-03-23T02:21:28;8.10;;;3.23;;
3924;SDS011;1977;52.274;10.518;2024-03-23T02:23:58;5.30;;;3.70;;
3924;SDS011;1977;52.274;10.518;2024-03-23T02:26:24;6.90;;;3.67;;
3924;SDS011;1977;52.274;10.518;2024-03-23T02:28:51;6.17;;;4.30;;
3924;SDS011;1977;52.274;10.518;2024-03-23T02:31:16;4.20;;;3.80;;
3924;SDS011;1977;52.274;10.518;2024-03-23T02:33:43;4.43;;;3.83;;
3924;SDS011;1977;52.274;10.518;2024-03-23T02:36:09;5.00;;;4.20;;
3924;SDS011;1977;52.274;10.518;2024-03-23T02:38:36;6.37;;;3.90;;
3924;SDS011;1977;52.274;10.518;2024-03-23T02:41:04;5.70;;;3.70;;
3924;SDS011;1977;52.274;10.518;2024-03-23T02:43:31;5.90;;;3.90;;
3924;SDS011;1977;52.274;10.518;2024-03-23T02:45:56;6.50;;;3.53;;
3924;SDS011;1977;52.274;10.518;2024-03-23T02:48:23;6.50;;;3.67;;
3924;SDS011;1977;52.274;10.518;2024-03-23T02:50:49;4.30;;;3.80;;
3924;SDS011;1977;52.274;10.518;2024-03-23T02:53:16;4.87;;;4.10;;
3924;SDS011;1977;52.274;10.518;2024-03-23T02:55:42;4.53;;;3.53;;
3924;SDS011;1977;52.274;10.518;2024-03-23T02:58:10;4.73;;;3.30;;
3924;SDS011;1977;52.274;10.518;2024-03-23T03:00:36;9.40;;;3.90;;
3924;SDS011;1977;52.274;10.518;2024-03-23T03:03:03;7.00;;;3.53;;
3924;SDS011;1977;52.274;10.518;2024-03-23T03:05:29;6.53;;;4.10;;
3924;SDS011;1977;52.274;10.518;2024-03-23T03:07:56;4.83;;;3.97;;
3924;SDS011;1977;52.274;10.518;2024-03-23T03:10:22;6.20;;;4.10;;
3924;SDS011;1977;52.274;10.518;2024-03-23T03:12:49;6.77;;;3.90;;
3924;SDS011;1977;52.274;10.518;2024-03-23T03:15:16;4.70;;;3.77;;
3924;SDS011;1977;52.274;10.518;2024-03-23T03:17:43;6.63;;;5.00;;
3924;SDS011;1977;52.274;10.518;2024-03-23T03:20:09;4.10;;;3.77;;
3924;SDS011;1977;52.274;10.518;2024-03-23T03:22:38;3.63;;;3.33;;
3924;SDS011;1977;52.274;10.518;2024-03-23T03:25:04;5.70;;;4.00;;
3924;SDS011;1977;52.274;10.518;2024-03-23T03:27:32;5.50;;;3.83;;
3924;SDS011;1977;52.274;10.518;2024-03-23T03:29:59;6.97;;;3.97;;
3924;SDS011;1977;52.274;10.518;2024-03-23T03:32:29;5.80;;;3.43;;
3924;SDS011;1977;52.274;10.518;2024-03-23T03:34:55;6.00;;;3.67;;
3924;SDS011;1977;52.274;10.518;2024-03-23T03:37:21;8.67;;;3.90;;
3924;SDS011;1977;52.274;10.518;2024-03-23T03:39:47;4.20;;;3.80;;
3924;SDS011;1977;52.274;10.518;2024-03-23T03:42:14;5.43;;;4.20;;
3924;SDS011;1977;52.274;10.518;2024-03-23T03:44:40;6.03;;;2.90;;
3924;SDS011;1977;52.274;10.518;2024-03-23T03:47:07;3.80;;;3.50;;
3924;SDS011;1977;52.274;10.518;2024-03-23T03:49:34;4.50;;;3.30;;
3924;SDS011;1977;52.274;10.518;2024-03-23T03:52:01;5.77;;;3.77;;
3924;SDS011;1977;52.274;10.518;2024-03-23T03:54:27;4.30;;;3.33;;
3924;SDS011;1977;52.274;10.518;2024-03-23T03:56:54;4.30;;;3.43;;
3924;SDS011;1977;52.274;10.518;2024-03-23T03:59:19;5.00;;;3.43;;
3924;SDS011;1977;52.274;10.518;2024-03-23T04:01:46;6.23;;;3.70;;
3924;SDS011;1977;52.274;10.518;2024-03-23T04:04:12;4.00;;;3.60;;
3924;SDS011;1977;52.274;10.518;2024-03-23T04:06:42;7.60;;;4.10;;
3924;SDS011;1977;52.274;10.518;2024-03-23T04:09:08;4.47;;;3.30;;
3924;SDS011;1977;52.274;10.518;2024-03-23T04:11:36;4.87;;;3.47;;
3924;SDS011;1977;52.274;10.518;2024-03-23T04:14:01;5.00;;;3.20;;
3924;SDS011;1977;52.274;10.518;2024-03-23T04:16:29;4.27;;;3.40;;
3924;SDS011;1977;52.274;10.518;2024-03-23T04:18:58;6.53;;;3.37;;
3924;SDS011;1977;52.274;10.518;2024-03-23T04:21:25;4.40;;;3.63;;
3924;SDS011;1977;52.274;10.518;2024-03-23T04:23:52;4.50;;;3.33;;
3924;SDS011;1977;52.274;10.518;2024-03-23T04:26:19;5.67;;;3.20;;
3924;SDS011;1977;52.274;10.518;2024-03-23T04:28:45;4.80;;;3.27;;
3924;SDS011;1977;52.274;10.518;2024-03-23T04:31:12;4.00;;;3.27;;
3924;SDS011;1977;52.274;10.518;2024-03-23T04:33:37;6.37;;;3.53;;
3924;SDS011;1977;52.274;10.518;2024-03-23T04:36:04;5.47;;;3.50;;
3924;SDS011;1977;52.274;10.518;2024-03-23T04:38:32;4.73;;;3.27;;
3924;SDS011;1977;52.274;10.518;2024-03-23T04:41:00;5.33;;;3.37;;
3924;SDS011;1977;52.274;10.518;2024-03-23T04:43:27;4.17;;;3.10;;
3924;SDS011;1977;52.274;10.518;2024-03-23T04:45:55;3.93;;;3.40;;
3924;SDS011;1977;52.274;10.518;2024-03-23T04:48:22;3.20;;;2.90;;
3924;SDS011;1977;52.274;10.518;2024-03-23T04:50:51;3.50;;;3.07;;
3924;SDS011;1977;52.274;10.518;2024-03-23T04:53:22;6.93;;;3.77;;
3924;SDS011;1977;52.274;10.518;2024-03-23T04:55:53;4.43;;;3.20;;
3924;SDS011;1977;52.274;10.518;2024-03-23T04:58:21;6.67;;;3.53;;
3924;SDS011;1977;52.274;10.518;2024-03-23T05:00:47;5.77;;;3.97;;
3924;SDS011;1977;52.274;10.518;2024-03-23T05:03:15;3.50;;;3.23;;
3924;SDS011;1977;52.274;10.518;2024-03-23T05:05:40;6.23;;;3.60;;
3924;SDS011;1977;52.274;10.518;2024-03-23T05:08:07;7.47;;;4.40;;
3924;SDS011;1977;52.274;10.518;2024-03-23T05:10:33;3.00;;;2.80;;
3924;SDS011;1977;52.274;10.518;2024-03-23T05:13:00;12.53;;;3.50;;
3924;SDS011;1977;52.274;10.518;2024-03-23T05:15:28;4.17;;;2.80;;
3924;SDS011;1977;52.274;10.518;2024-03-23T05:17:55;5.50;;;3.33;;
3924;SDS011;1977;52.274;10.518;2024-03-23T05:20:21;5.03;;;3.30;;
3924;SDS011;1977;52.274;10.518;2024-03-23T05:22:47;3.20;;;3.00;;
3924;SDS011;1977;52.274;10.518;2024-03-23T05:25:15;4.80;;;3.10;;
3924;SDS011;1977;52.274;10.518;2024-03-23T05:27:41;8.13;;;3.97;;
3924;SDS011;1977;52.274;10.518;2024-03-23T05:30:08;7.07;;;4.00;;
3924;SDS011;1977;52.274;10.518;2024-03-23T05:32:37;7.03;;;3.77;;
3924;SDS011;1977;52.274;10.518;2024-03-23T05:35:05;8.67;;;3.60;;
3924;SDS011;1977;52.274;10.518;2024-03-23T05:37:32;3.43;;;2.60;;
3924;SDS011;1977;52.274;10.518;2024-03-23T05:39:59;4.20;;;3.37;;
3924;SDS011;1977;52.274;10.518;2024-03-23T05:42:25;6.53;;;3.50;;
3924;SDS011;1977;52.274;10.518;2024-03-23T05:44:52;4.03;;;3.60;;
3924;SDS011;1977;52.274;10.518;2024-03-23T05:47:19;9.63;;;4.30;;
3924;SDS011;1977;52.274;10.518;2024-03-23T05:49:47;7.80;;;3.50;;
3924;SDS011;1977;52.274;10.518;2024-03-23T05:52:13;5.60;;;3.70;;
3924;SDS011;1977;52.274;10.518;2024-03-23T05:54:39;6.60;;;3.67;;
3924;SDS011;1977;52.274;10.518;2024-03-23T05:57:07;7.13;;;3.43;;
3924;SDS011;1977;52.274;10.518;2024-03-23T05:59:35;3.53;;;3.23;;
3924;SDS011;1977;52.274;10.518;2024-03-23T06:02:00;6.77;;;3.00;;
3924;SDS011;1977;52.274;10.518;2024-03-23T06:04:28;5.60;;;3.33;;
3924;SDS011;1977;52.274;10.518;2024-03-23T06:06:56;5.90;;;3.10;;
3924;SDS011;1977;52.274;10.518;2024-03-23T06:09:23;5.10;;;2.83;;
3924;SDS011;1977;52.274;10.518;2024-03-23T06:11:49;6.40;;;2.90;;
3924;SDS011;1977;52.274;10.518;2024-03-23T06:14:15;4.30;;;2.60;;
3924;SDS011;1977;52.274;10.518;2024-03-23T06:16:41;4.57;;;3.10;;
3924;SDS011;1977;52.274;10.518;2024-03-23T06:19:08;6.70;;;3.47;;
3924;SDS011;1977;52.274;10.518;2024-03-23T06:21:34;6.20;;;3.00;;
3924;SDS011;1977;52.274;10.518;2024-03-23T06:24:03;6.50;;;2.90;;
3924;SDS011;1977;52.274;10.518;2024-03-23T06:26:29;7.13;;;4.57;;
3924;SDS011;1977;52.274;10.518;2024-03-23T06:28:56;2.60;;;1.97;;
3924;SDS011;1977;52.274;10.518;2024-03-23T06:31:22;4.10;;;2.70;;
3924;SDS011;1977;52.274;10.518;2024-03-23T06:33:49;5.07;;;2.57;;
3924;SDS011;1977;52.274;10.518;2024-03-23T06:36:14;3.30;;;2.57;;
3924;SDS011;1977;52.274;10.518;2024-03-23T06:38:41;6.17;;;2.33;;
3924;SDS011;1977;52.274;10.518;2024-03-23T06:41:08;2.70;;;2.20;;
3924;SDS011;1977;52.274;10.518;2024-03-23T06:43:36;2.17;;;1.83;;
3924;SDS011;1977;52.274;10.518;2024-03-23T06:46:03;3.37;;;2.07;;
3924;SDS011;1977;52.274;10.518;2024-03-23T06:48:30;4.97;;;3.43;;
3924;SDS011;1977;52.274;10.518;2024-03-23T06:50:56;7.97;;;2.50;;
3924;SDS011;1977;52.274;10.518;2024-03-23T06:53:23;2.53;;;1.70;;
3924;SDS011;1977;52.274;10.518;2024-03-23T06:55:50;4.20;;;2.20;;
3924;SDS011;1977;52.274;10.518;2024-03-23T06:58:20;3.43;;;2.23;;
3924;SDS011;1977;52.274;10.518;2024-03-23T07:00:46;4.30;;;3.20;;
3924;SDS011;1977;52.274;10.518;2024-03-23T07:03:12;4.20;;;2.10;;
3924;SDS011;1977;52.274;10.518;2024-03-23T07:05:38;2.60;;;1.83;;
3924;SDS011;1977;52.274;10.518;2024-03-23T07:08:05;3.30;;;1.97;;
3924;SDS011;1977;52.274;10.518;2024-03-23T07:10:31;2.70;;;1.97;;
3924;SDS011;1977;52.274;10.518;2024-03-23T07:12:58;1.90;;;1.80;;
3924;SDS011;1977;52.274;10.518;2024-03-23T07:15:25;3.20;;;1.80;;
3924;SDS011;1977;52.274;10.518;2024-03-23T07:17:52;2.90;;;2.53;;
3924;SDS011;1977;52.274;10.518;2024-03-23T07:20:18;2.03;;;1.93;;
3924;SDS011;1977;52.274;10.518;2024-03-23T07:22:45;4.13;;;2.17;;
3924;SDS011;1977;52.274;10.518;2024-03-23T07:25:11;2.40;;;2.20;;
3924;SDS011;1977;52.274;10.518;2024-03-23T07:27:37;4.17;;;2.10;;
3924;SDS011;1977;52.274;10.518;2024-03-23T07:30:03;5.57;;;2.80;;
3924;SDS011;1977;52.274;10.518;2024-03-23T07:32:32;4.40;;;2.00;;
3924;SDS011;1977;52.274;10.518;2024-03-23T07:34:58;5.53;;;2.33;;
3924;SDS011;1977;52.274;10.518;2024-03-23T07:37:25;4.47;;;2.30;;
3924;SDS011;1977;52.274;10.518;2024-03-23T07:39:51;2.87;;;2.43;;
3924;SDS011;1977;52.274;10.518;2024-03-23T07:42:18;5.53;;;2.53;;
3924;SDS011;1977;52.274;10.518;2024-03-23T07:44:43;3.33;;;2.13;;
3924;SDS011;1977;52.274;10.518;2024-03-23T07:47:11;3.33;;;2.13;;
3924;SDS011;1977;52.274;10.518;2024-03-23T07:49:38;6.20;;;2.30;;
3924;SDS011;1977;52.274;10.518;2024-03-23T07:52:06;2.93;;;2.27;;
3924;SDS011;1977;52.274;10.518;2024-03-23T07:54:33;3.33;;;2.03;;
3924;SDS011;1977;52.274;10.518;2024-03-23T07:57:00;4.47;;;2.23;;
3924;SDS011;1977;52.274;10.518;2024-03-23T07:59:25;4.80;;;2.13;;
3924;SDS011;1977;52.274;10.518;2024-03-23T08:01:53;6.20;;;2.30;;
3924;SDS011;1977;52.274;10.518;2024-03-23T08:04:20;3.00;;;2.13;;
3924;SDS011;1977;52.274;10.518;2024-03-23T08:06:48;4.27;;;1.53;;
3924;SDS011;1977;52.274;10.518;2024-03-23T08:09:14;3.30;;;1.90;;
3924;SDS011;1977;52.274;10.518;2024-03-23T08:11:40;2.77;;;1.90;;
3924;SDS011;1977;52.274;10.518;2024-03-23T08:14:09;2.80;;;2.57;;
3924;SDS011;1977;52.274;10.518;2024-03-23T08:16:35;5.17;;;2.87;;
3924;SDS011;1977;52.274;10.518;2024-03-23T08:19:01;3.80;;;1.83;;
3924;SDS011;1977;52.274;10.518;2024-03-23T08:21:28;5.47;;;2.27;;
3924;SDS011;1977;52.274;10.518;2024-03-23T08:23:56;3.83;;;2.67;;
3924;SDS011;1977;52.274;10.518;2024-03-23T08:26:25;3.90;;;2.30;;
3924;SDS011;1977;52.274;10.518;2024-03-23T08:28:50;6.20;;;2.53;;
3924;SDS011;1977;52.274;10.518;2024-03-23T08:31:17;3.83;;;2.23;;
3924;SDS011;1977;52.274;10.518;2024-03-23T08:33:43;5.00;;;3.17;;
3924;SDS011;1977;52.274;10.518;2024-03-23T08:36:10;3.47;;;2.30;;
3924;SDS011;1977;52.274;10.518;2024-03-23T08:38:37;6.83;;;2.73;;
3924;SDS011;1977;52.274;10.518;2024-03-23T08:41:06;3.50;;;2.47;;
3924;SDS011;1977;52.274;10.518;2024-03-23T08:43:33;3.90;;;2.40;;
3924;SDS011;1977;52.274;10.518;2024-03-23T08:46:05;10.33;;;2.90;;
3924;SDS011;1977;52.274;10.518;2024-03-23T08:48:32;4.93;;;2.53;;
3924;SDS011;1977;52.274;10.518;2024-03-23T08:51:02;2.83;;;2.57;;
3924;SDS011;1977;52.274;10.518;2024-03-23T08:53:29;3.80;;;2.80;;
3924;SDS011;1977;52.274;10.518;2024-03-23T08:55:57;2.73;;;2.10;;
3924;SDS011;1977;52.274;10.518;2024-03-23T08:58:25;4.13;;;2.83;;
3924;SDS011;1977;52.274;10.518;2024-03-23T09:00:52;7.10;;;3.30;;
3924;SDS011;1977;52.274;10.518;2024-03-23T09:03:21;6.20;;;2.87;;
3924;SDS011;1977;52.274;10.518;2024-03-23T09:05:48;5.40;;;2.90;;
3924;SDS011;1977;52.274;10.518;2024-03-23T09:08:14;5.27;;;2.80;;
3924;SDS011;1977;52.274;10.518;2024-03-23T09:10:41;5.93;;;3.87;;
3924;SDS011;1977;52.274;10.518;2024-03-23T09:13:07;3.43;;;2.67;;
3924;SDS011;1977;52.274;10.518;2024-03-23T09:15:36;7.90;;;3.60;;
3924;SDS011;1977;52.274;10.518;2024-03-23T09:18:10;7.60;;;3.90;;
3924;SDS011;1977;52.274;10.518;2024-03-23T09:20:37;6.00;;;3.50;;
3924;SDS011;1977;52.274;10.518;2024-03-23T09:23:02;12.80;;;4.20;;
3924;SDS011;1977;52.274;10.518;2024-03-23T09:25:29;7.47;;;3.93;;
3924;SDS011;1977;52.274;10.518;2024-03-23T09:27:55;6.13;;;4.20;;
3924;SDS011;1977;52.274;10.518;2024-03-23T09:30:22;7.00;;;3.80;;
3924;SDS011;1977;52.274;10.518;2024-03-23T09:32:49;7.10;;;4.20;;
3924;SDS011;1977;52.274;10.518;2024-03-23T09:35:16;12.33;;;3.77;;
3924;SDS011;1977;52.274;10.518;2024-03-23T09:37:42;8.63;;;4.00;;
3924;SDS011;1977;52.274;10.518;2024-03-23T09:40:09;5.70;;;3.30;;
3924;SDS011;1977;52.274;10.518;2024-03-23T09:42:35;7.30;;;3.70;;
3924;SDS011;1977;52.274;10.518;2024-03-23T09:45:02;5.57;;;4.57;;
3924;SDS011;1977;52.274;10.518;2024-03-23T09:47:32;10.07;;;6.00;;
3924;SDS011;1977;52.274;10.518;2024-03-23T09:50:00;9.57;;;5.40;;
3924;SDS011;1977;52.274;10.518;2024-03-23T09:52:26;11.73;;;6.40;;
3924;SDS011;1977;52.274;10.518;2024-03-23T09:54:53;12.00;;;6.43;;
3924;SDS011;1977;52.274;10.518;2024-03-23T09:57:19;12.80;;;6.00;;
3924;SDS011;1977;52.274;10.518;2024-03-23T09:59:46;11.53;;;5.93;;
3924;SDS011;1977;52.274;10.518;2024-03-23T10:02:11;9.60;;;5.60;;
3924;SDS011;1977;52.274;10.518;2024-03-23T10:04:42;14.10;;;6.57;;
3924;SDS011;1977;52.274;10.518;2024-03-23T10:07:12;9.07;;;5.77;;
3924;SDS011;1977;52.274;10.518;2024-03-23T10:09:40;9.47;;;5.87;;
3924;SDS011;1977;52.274;10.518;2024-03-23T10:12:09;16.73;;;6.57;;
3924;SDS011;1977;52.274;10.518;2024-03-23T10:14:37;11.87;;;6.83;;
3924;SDS011;1977;52.274;10.518;2024-03-23T10:17:13;12.13;;;6.60;;
3924;SDS011;1977;52.274;10.518;2024-03-23T10:19:42;15.73;;;6.13;;
3924;SDS011;1977;52.274;10.518;2024-03-23T10:22:09;8.63;;;5.50;;
3924;SDS011;1977;52.274;10.518;2024-03-23T10:24:37;9.23;;;5.57;;
3924;SDS011;1977;52.274;10.518;2024-03-23T10:27:03;9.57;;;5.57;;
3924;SDS011;1977;52.274;10.518;2024-03-23T10:29:30;11.00;;;5.10;;
3924;SDS011;1977;52.274;10.518;2024-03-23T10:32:07;9.00;;;5.70;;
3924;SDS011;1977;52.274;10.518;2024-03-23T10:34:34;5.40;;;3.63;;
3924;SDS011;1977;52.274;10.518;2024-03-23T10:37:01;7.67;;;4.63;;
3924;SDS011;1977;52.274;10.518;2024-03-23T10:39:30;12.47;;;4.87;;
3924;SDS011;1977;52.274;10.518;2024-03-23T10:41:59;6.10;;;4.17;;
3924;SDS011;1977;52.274;10.518;2024-03-23T10:44:29;7.50;;;4.03;;
3924;SDS011;1977;52.274;10.518;2024-03-23T10:46:56;8.33;;;4.97;;
3924;SDS011;1977;52.274;10.518;2024-03-23T10:49:25;6.87;;;3.80;;
3924;SDS011;1977;52.274;10.518;2024-03-23T10:51:54;5.83;;;3.47;;
3924;SDS011;1977;52.274;10.518;2024-03-23T10:54:22;9.93;;;4.20;;
3924;SDS011;1977;52.274;10.518;2024-03-23T10:56:49;6.97;;;3.30;;
3924;SDS011;1977;52.274;10.518;2024-03-23T10:59:20;2.77;;;2.57;;
3924;SDS011;1977;52.274;10.518;2024-03-23T11:01:55;3.90;;;2.90;;
3924;SDS011;1977;52.274;10.518;2024-03-23T11:04:29;3.53;;;2.90;;
3924;SDS011;1977;52.274;10.518;2024-03-23T11:06:56;5.47;;;2.50;;
3924;SDS011;1977;52.274;10.518;2024-03-23T11:09:37;6.93;;;3.03;;
3924;SDS011;1977;52.274;10.518;2024-03-23T11:12:13;5.07;;;3.00;;
3924;SDS011;1977;52.274;10.518;2024-03-23T11:14:52;5.97;;;2.70;;
3924;SDS011;1977;52.274;10.518;2024-03-23T11:17:20;8.73;;;3.20;;
3924;SDS011;1977;52.274;10.518;2024-03-23T11:19:52;3.03;;;2.80;;
3924;SDS011;1977;52.274;10.518;2024-03-23T11:25:11;4.60;;;3.57;;
3924;SDS011;1977;52.274;10.518;2024-03-23T11:27:41;7.33;;;3.93;;
3924;SDS011;1977;52.274;10.518;2024-03-23T11:30:17;9.93;;;3.93;;
3924;SDS011;1977;52.274;10.518;2024-03-23T11:32:44;5.73;;;5.10;;
3924;SDS011;1977;52.274;10.518;2024-03-23T11:35:24;7.53;;;3.50;;
3924;SDS011;1977;52.274;10.518;2024-03-23T11:38:01;5.23;;;3.37;;
3924;SDS011;1977;52.274;10.518;2024-03-23T11:40:31;6.50;;;2.53;;
3924;SDS011;1977;52.274;10.518;2024-03-23T11:42:59;4.80;;;2.80;;
3924;SDS011;1977;52.274;10.518;2024-03-23T11:45:31;4.23;;;2.83;;
3924;SDS011;1977;52.274;10.518;2024-03-23T11:48:06;6.83;;;2.97;;
3924;SDS011;1977;52.274;10.518;2024-03-23T11:50:36;4.90;;;2.70;;
3924;SDS011;1977;52.274;10.518;2024-03-23T11:53:06;5.43;;;1.80;;
3924;SDS011;1977;52.274;10.518;2024-03-23T11:55:43;1.53;;;1.40;;
3924;SDS011;1977;52.274;10.518;2024-03-23T11:58:10;1.87;;;1.33;;
3924;SDS011;1977;52.274;10.518;2024-03-23T12:00:39;1.87;;;1.67;;
3924;SDS011;1977;52.274;10.518;2024-03-23T12:03:05;3.33;;;2.20;;
3924;SDS011;1977;52.274;10.518;2024-03-23T12:05:32;3.13;;;2.30;;
3924;SDS011;1977;52.274;10.518;2024-03-23T12:13:14;2.73;;;2.47;;
3924;SDS011;1977;52.274;10.518;2024-03-23T12:15:49;1.93;;;1.83;;
3924;SDS011;1977;52.274;10.518;2024-03-23T12:18:16;1.90;;;1.80;;
3924;SDS011;1977;52.274;10.518;2024-03-23T12:20:43;1.97;;;1.87;;
3924;SDS011;1977;52.274;10.518;2024-03-23T12:23:09;2.50;;;2.40;;
3924;SDS011;1977;52.274;10.518;2024-03-23T12:25:37;2.43;;;2.23;;
3924;SDS011;1977;52.274;10.518;2024-03-23T12:28:04;2.40;;;2.30;;
3924;SDS011;1977;52.274;10.518;2024-03-23T12:30:32;5.97;;;2.60;;
3924;SDS011;1977;52.274;10.518;2024-03-23T12:33:00;2.40;;;2.20;;
3924;SDS011;1977;52.274;10.518;2024-03-23T12:35:28;6.23;;;2.40;;
3924;SDS011;1977;52.274;10.518;2024-03-23T12:37:54;3.70;;;2.10;;
3924;SDS011;1977;52.274;10.518;2024-03-23T12:40:20;2.23;;;2.03;;
3924;SDS011;1977;52.274;10.518;2024-03-23T12:42:46;2.30;;;2.10;;
3924;SDS011;1977;52.274;10.518;2024-03-23T12:45:13;2.10;;;1.80;;
3924;SDS011;1977;52.274;10.518;2024-03-23T12:47:39;2.67;;;2.47;;
3924;SDS011;1977;52.274;10.518;2024-03-23T12:50:07;3.73;;;3.00;;
3924;SDS011;1977;52.274;10.518;2024-03-23T12:52:34;2.37;;;2.27;;
3924;SDS011;1977;52.274;10.518;2024-03-23T12:55:01;2.50;;;2.30;;
3924;SDS011;1977;52.274;10.518;2024-03-23T12:57:28;3.00;;;2.47;;
3924;SDS011;1977;52.274;10.518;2024-03-23T12:59:55;2.47;;;2.30;;
3924;SDS011;1977;52.274;10.518;2024-03-23T13:02:21;3.00;;;2.20;;
3924;SDS011;1977;52.274;10.518;2024-03-23T13:04:49;5.43;;;2.30;;
3924;SDS011;1977;52.274;10.518;2024-03-23T13:07:17;2.27;;;2.03;;
3924;SDS011;1977;52.274;10.518;2024-03-23T13:09:44;2.90;;;2.20;;
3924;SDS011;1977;52.274;10.518;2024-03-23T13:12:10;2.13;;;1.93;;
3924;SDS011;1977;52.274;10.518;2024-03-23T13:14:38;2.33;;;2.23;;
3924;SDS011;1977;52.274;10.518;2024-03-23T13:17:05;2.30;;;2.10;;
3924;SDS011;1977;52.274;10.518;2024-03-23T13:19:31;4.43;;;2.30;;
3924;SDS011;1977;52.274;10.518;2024-03-23T13:21:58;3.33;;;2.47;;
3924;SDS011;1977;52.274;10.518;2024-03-23T13:24:26;2.47;;;2.37;;
3924;SDS011;1977;52.274;10.518;2024-03-23T13:26:53;6.33;;;3.03;;
3924;SDS011;1977;52.274;10.518;2024-03-23T13:29:20;4.37;;;3.37;;
3924;SDS011;1977;52.274;10.518;2024-03-23T13:31:47;3.50;;;3.23;;
3924;SDS011;1977;52.274;10.518;2024-03-23T13:34:13;2.90;;;2.70;;
3924;SDS011;1977;52.274;10.518;2024-03-23T13:36:41;3.07;;;2.57;;
3924;SDS011;1977;52.274;10.518;2024-03-23T13:39:06;3.50;;;2.97;;
3924;SDS011;1977;52.274;10.518;2024-03-23T13:41:37;3.90;;;3.67;;
3924;SDS011;1977;52.274;10.518;2024-03-23T13:44:04;3.37;;;3.07;;
3924;SDS011;1977;52.274;10.518;2024-03-23T13:46:31;3.00;;;2.70;;
3924;SDS011;1977;52.274;10.518;2024-03-23T13:48:57;3.30;;;3.00;;
3924;SDS011;1977;52.274;10.518;2024-03-23T13:51:24;3.10;;;2.90;;
3924;SDS011;1977;52.274;10.518;2024-03-23T13:53:50;3.00;;;2.70;;
3924;SDS011;1977;52.274;10.518;2024-03-23T13:56:17;3.10;;;2.10;;
3924;SDS011;1977;52.274;10.518;2024-03-23T13:58:44;2.07;;;1.97;;
3924;SDS011;1977;52.274;10.518;2024-03-23T14:01:12;2.10;;;1.90;;
3924;SDS011;1977;52.274;10.518;2024-03-23T14:03:39;2.10;;;1.90;;
3924;SDS011;1977;52.274;10.518;2024-03-23T14:06:06;3.63;;;2.37;;
3924;SDS011;1977;52.274;10.518;2024-03-23T14:08:32;2.00;;;1.90;;
3924;SDS011;1977;52.274;10.518;2024-03-23T14:11:01;2.60;;;2.20;;
3924;SDS011;1977;52.274;10.518;2024-03-23T14:13:28;3.10;;;2.53;;
3924;SDS011;1977;52.274;10.518;2024-03-23T14:15:56;2.40;;;2.20;;
3924;SDS011;1977;52.274;10.518;2024-03-23T14:18:24;1.90;;;1.80;;
3924;SDS011;1977;52.274;10.518;2024-03-23T14:20:51;1.77;;;1.67;;
3924;SDS011;1977;52.274;10.518;2024-03-23T14:23:19;2.13;;;2.03;;
3924;SDS011;1977;52.274;10.518;2024-03-23T14:25:45;2.00;;;1.90;;
3924;SDS011;1977;52.274;10.518;2024-03-23T14:28:11;1.80;;;1.70;;
3924;SDS011;1977;52.274;10.518;2024-03-23T14:30:41;2.10;;;2.00;;
3924;SDS011;1977;52.274;10.518;2024-03-23T14:33:10;1.80;;;1.70;;
3924;SDS011;1977;52.274;10.518;2024-03-23T14:35:35;2.67;;;1.90;;
3924;SDS011;1977;52.274;10.518;2024-03-23T14:38:03;2.70;;;2.50;;
3924;SDS011;1977;52.274;10.518;2024-03-23T14:40:29;2.77;;;2.57;;
3924;SDS011;1977;52.274;10.518;2024-03-23T14:42:56;3.53;;;3.23;;
3924;SDS011;1977;52.274;10.518;2024-03-23T14:45:22;2.90;;;2.70;;
3924;SDS011;1977;52.274;10.518;2024-03-23T14:47:49;2.90;;;2.60;;
3924;SDS011;1977;52.274;10.518;2024-03-23T14:50:16;3.50;;;2.90;;
3924;SDS011;1977;52.274;10.518;2024-03-23T14:52:44;2.30;;;2.20;;
3924;SDS011;1977;52.274;10.518;2024-03-23T14:55:10;2.53;;;2.33;;
3924;SDS011;1977;52.274;10.518;2024-03-23T14:57:37;2.77;;;2.50;;
3924;SDS011;1977;52.274;10.518;2024-03-23T15:00:05;3.60;;;3.00;;
3924;SDS011;1977;52.274;10.518;2024-03-23T15:02:33;4.80;;;3.07;;
3924;SDS011;1977;52.274;10.518;2024-03-23T15:04:59;2.30;;;2.20;;
3924;SDS011;1977;52.274;10.518;2024-03-23T15:07:27;5.43;;;3.27;;
3924;SDS011;1977;52.274;10.518;2024-03-23T15:09:53;3.07;;;2.27;;
3924;SDS011;1977;52.274;10.518;2024-03-23T15:12:20;4.20;;;2.87;;
3924;SDS011;1977;52.274;10.518;2024-03-23T15:14:46;3.97;;;2.90;;
3924;SDS011;1977;52.274;10.518;2024-03-23T15:17:13;4.70;;;3.50;;
3924;SDS011;1977;52.274;10.518;2024-03-23T15:19:39;4.37;;;3.97;;
3924;SDS011;1977;52.274;10.518;2024-03-23T15:22:07;3.43;;;3.20;;
3924;SDS011;1977;52.274;10.518;2024-03-23T15:24:35;3.57;;;3.23;;
3924;SDS011;1977;52.274;10.518;2024-03-23T15:27:02;2.20;;;2.00;;
3924;SDS011;1977;52.274;10.518;2024-03-23T15:29:28;1.90;;;1.80;;
3924;SDS011;1977;52.274;10.518;2024-03-23T15:31:55;2.47;;;2.10;;
3924;SDS011;1977;52.274;10.518;2024-03-23T15:34:21;1.80;;;1.53;;
3924;SDS011;1977;52.274;10.518;2024-03-23T15:36:49;1.87;;;1.77;;
3924;SDS011;1977;52.274;10.518;2024-03-23T15:46:01;2.37;;;2.10;;
3924;SDS011;1977;52.274;10.518;2024-03-23T15:48:29;1.77;;;1.67;;
3924;SDS011;1977;52.274;10.518;2024-03-23T15:50:57;1.87;;;1.77;;
3924;SDS011;1977;52.274;10.518;2024-03-23T15:53:25;2.03;;;1.90;;
3924;SDS011;1977;52.274;10.518;2024-03-23T15:55:53;1.93;;;1.73;;
3924;SDS011;1977;52.274;10.518;2024-03-23T15:58:20;1.80;;;1.70;;
3924;SDS011;1977;52.274;10.518;2024-03-23T16:00:45;1.87;;;1.77;;
3924;SDS011;1977;52.274;10.518;2024-03-23T16:03:21;2.30;;;2.10;;
3924;SDS011;1977;52.274;10.518;2024-03-23T16:05:49;2.17;;;2.07;;
3924;SDS011;1977;52.274;10.518;2024-03-23T16:08:17;2.83;;;2.23;;
3924;SDS011;1977;52.274;10.518;2024-03-23T16:10:42;2.20;;;1.70;;